createdAt,value
2022-08-08T00:00:55.167Z,13.05
2022-08-08T00:00:55.240Z,13.25
2022-08-08T00:02:03.094Z,13.41
2022-08-08T00:02:33.266Z,13.54
2022-08-08T00:03:32.083Z,13.65
2022-08-08T00:04:30.485Z,13.72
2022-08-08T00:05:44.359Z,13.75
2022-08-08T00:06:34.970Z,13.78
2022-08-08T00:07:30.756Z,13.81
2022-08-08T00:08:31.340Z,13.85
2022-08-08T00:09:33.015Z,13.90
2022-08-08T00:10:32.260Z,13.93
2022-08-08T00:11:46.931Z,13.96
2022-08-08T00:12:32.075Z,13.97
2022-08-08T00:14:16.809Z,14.03
2022-08-08T00:14:57.319Z,14.05
2022-08-08T00:15:57.182Z,14.08
2022-08-08T00:16:33.020Z,14.11
2022-08-08T00:17:35.219Z,14.14
2022-08-08T00:18:33.660Z,14.15
2022-08-08T00:19:32.902Z,14.18
2022-08-08T00:20:33.219Z,14.22
2022-08-08T00:21:43.446Z,14.20
2022-08-08T00:22:35.741Z,14.20
2022-08-08T00:23:42.862Z,14.20
2022-08-08T00:24:35.345Z,14.15
2022-08-08T00:25:34.574Z,14.05
2022-08-08T00:26:37.764Z,13.78
2022-08-08T00:27:38.084Z,13.63
2022-08-08T00:28:36.853Z,13.53
2022-08-08T00:29:45.282Z,13.37
2022-08-08T00:30:45.187Z,13.23
2022-08-08T00:32:28.830Z,13.13
2022-08-08T00:32:39.651Z,13.05
2022-08-08T00:34:18.659Z,12.95
2022-08-08T00:34:40.086Z,12.83
2022-08-08T00:35:39.359Z,12.72
2022-08-08T00:36:37.814Z,12.65
2022-08-08T00:37:47.667Z,12.57
2022-08-08T00:38:44.277Z,12.49
2022-08-08T00:41:10.390Z,12.32
2022-08-08T00:41:10.631Z,12.39
2022-08-08T00:41:54.466Z,12.25
2022-08-08T00:42:44.529Z,12.18
2022-08-08T00:43:41.103Z,12.21
2022-08-08T00:44:40.071Z,12.22
2022-08-08T00:45:40.601Z,12.27
2022-08-08T00:46:57.270Z,12.25
2022-08-08T00:48:01.978Z,12.29
2022-08-08T00:48:43.232Z,12.39
2022-08-08T00:49:50.425Z,12.43
2022-08-08T00:50:48.224Z,12.43
2022-08-08T00:51:43.966Z,12.42
2022-08-08T00:52:48.574Z,12.36
2022-08-08T00:54:04.332Z,12.31
2022-08-08T00:54:45.658Z,12.25
2022-08-08T00:55:53.332Z,12.22
2022-08-08T00:56:44.764Z,12.18
2022-08-08T00:57:45.959Z,12.17
2022-08-08T00:58:54.545Z,12.21
2022-08-08T00:59:46.437Z,12.36
2022-08-08T01:00:44.654Z,12.31
2022-08-08T01:01:46.019Z,12.17
2022-08-08T01:03:57.655Z,12.04
2022-08-08T01:04:01.764Z,11.99
2022-08-08T01:04:47.417Z,11.88
2022-08-08T01:05:59.529Z,11.81
2022-08-08T01:06:48.166Z,11.77
2022-08-08T01:07:55.035Z,11.69
2022-08-08T01:08:51.846Z,11.65
2022-08-08T01:09:49.060Z,11.60
2022-08-08T01:10:49.803Z,11.57
2022-08-08T01:11:48.430Z,11.60
2022-08-08T01:12:49.117Z,11.66
2022-08-08T01:13:52.623Z,11.80
2022-08-08T01:14:53.459Z,12.12
2022-08-08T01:15:54.505Z,12.49
2022-08-08T01:16:49.494Z,12.76
2022-08-08T01:17:51.547Z,12.95
2022-08-08T01:18:54.270Z,13.04
2022-08-08T01:20:03.207Z,13.00
2022-08-08T01:20:51.742Z,12.78
2022-08-08T01:22:13.505Z,12.62
2022-08-08T01:22:53.280Z,12.58
2022-08-08T01:24:06.701Z,12.49
2022-08-08T01:24:54.765Z,12.45
2022-08-08T01:25:53.943Z,12.40
2022-08-08T01:26:52.497Z,12.39
2022-08-08T01:27:59.298Z,12.32
2022-08-08T01:28:54.047Z,12.15
2022-08-08T01:29:59.395Z,12.06
2022-08-08T01:30:56.456Z,12.00
2022-08-08T01:32:13.343Z,12.02
2022-08-08T01:32:57.132Z,12.13
2022-08-08T01:34:01.146Z,12.36
2022-08-08T01:34:57.507Z,12.50
2022-08-08T01:36:00.909Z,12.55
2022-08-08T01:36:55.139Z,12.64
2022-08-08T01:37:59.142Z,12.58
2022-08-08T01:38:57.528Z,12.67
2022-08-08T01:39:56.072Z,12.54
2022-08-08T01:40:56.351Z,12.43
2022-08-08T01:41:58.539Z,12.32
2022-08-08T01:43:00.084Z,12.28
2022-08-08T01:43:59.003Z,12.22
2022-08-08T01:44:57.620Z,12.15
2022-08-08T01:45:59.789Z,12.15
2022-08-08T01:47:33.360Z,12.03
2022-08-08T01:48:16.368Z,12.02
2022-08-08T01:49:00.031Z,12.00
2022-08-08T01:50:01.149Z,12.02
2022-08-08T01:50:59.490Z,12.03
2022-08-08T01:52:53.374Z,12.04
2022-08-08T01:54:29.664Z,12.13
2022-08-08T01:55:16.780Z,12.15
2022-08-08T01:55:26.861Z,12.20
2022-08-08T01:56:28.502Z,12.22
2022-08-08T01:57:04.113Z,12.22
2022-08-08T01:58:12.534Z,12.22
2022-08-08T01:59:03.049Z,12.29
2022-08-08T02:00:03.563Z,12.39
2022-08-08T02:01:04.189Z,12.46
2022-08-08T02:02:05.055Z,12.64
2022-08-08T02:03:07.414Z,12.87
2022-08-08T02:04:04.101Z,13.08
2022-08-08T02:05:03.335Z,13.20
2022-08-08T02:06:05.491Z,13.30
2022-08-08T02:07:04.128Z,13.35
2022-08-08T02:08:06.944Z,13.42
2022-08-08T02:09:17.630Z,13.44
2022-08-08T02:10:11.699Z,13.46
2022-08-08T02:11:05.958Z,13.50
2022-08-08T02:12:07.145Z,13.50
2022-08-08T02:13:09.483Z,13.54
2022-08-08T02:14:06.778Z,13.59
2022-08-08T02:15:11.021Z,13.63
2022-08-08T02:16:07.351Z,13.68
2022-08-08T02:17:10.755Z,13.72
2022-08-08T02:18:10.477Z,13.78
2022-08-08T02:19:26.705Z,13.79
2022-08-08T02:20:15.908Z,13.83
2022-08-08T02:21:08.850Z,13.85
2022-08-08T02:22:07.895Z,13.87
2022-08-08T02:23:16.558Z,13.90
2022-08-08T02:24:11.469Z,13.92
2022-08-08T02:25:11.696Z,13.93
2022-08-08T02:26:10.770Z,13.96
2022-08-08T02:27:09.369Z,13.97
2022-08-08T02:28:12.503Z,13.97
2022-08-08T02:29:18.735Z,14.00
2022-08-08T02:30:13.028Z,14.04
2022-08-08T02:31:43.488Z,14.07
2022-08-08T02:32:22.372Z,14.07
2022-08-08T02:33:15.810Z,14.08
2022-08-08T02:34:14.965Z,14.12
2022-08-08T02:35:15.770Z,14.12
2022-08-08T02:36:12.611Z,14.15
2022-08-08T02:37:51.375Z,14.18
2022-08-08T02:38:15.231Z,14.20
2022-08-08T02:39:40.529Z,14.20
2022-08-08T02:40:15.373Z,14.22
2022-08-08T02:41:58.071Z,14.23
2022-08-08T02:42:15.793Z,14.25
2022-08-08T02:44:35.933Z,14.23
2022-08-08T02:44:39.151Z,14.23
2022-08-08T02:45:18.608Z,14.23
2022-08-08T02:46:17.365Z,14.25
2022-08-08T02:47:16.859Z,14.26
2022-08-08T02:48:18.737Z,14.25
2022-08-08T02:49:18.641Z,14.25
2022-08-08T02:50:19.247Z,14.23
2022-08-08T02:51:29.893Z,14.26
2022-08-08T02:52:50.160Z,14.28
2022-08-08T02:53:18.179Z,14.29
2022-08-08T02:54:16.571Z,14.32
2022-08-08T02:55:19.620Z,14.33
2022-08-08T02:56:19.038Z,14.33
2022-08-08T02:57:19.219Z,14.33
2022-08-08T02:58:18.721Z,14.32
2022-08-08T02:59:25.944Z,14.33
2022-08-08T03:00:31.055Z,14.33
2022-08-08T03:01:21.707Z,14.32
2022-08-08T03:02:20.882Z,14.33
2022-08-08T03:05:01.608Z,14.33
2022-08-08T03:05:03.996Z,14.32
2022-08-08T03:05:20.919Z,14.32
2022-08-08T03:06:24.236Z,14.33
2022-08-08T03:07:23.341Z,14.35
2022-08-08T03:08:22.543Z,14.36
2022-08-08T03:09:22.714Z,14.36
2022-08-08T03:10:32.822Z,14.37
2022-08-08T03:11:25.758Z,14.36
2022-08-08T03:12:36.241Z,14.36
2022-08-08T03:15:54.496Z,14.37
2022-08-08T03:15:59.454Z,14.37
2022-08-08T03:15:59.561Z,14.37
2022-08-08T03:16:35.571Z,14.36
2022-08-08T03:17:39.150Z,14.36
2022-08-08T03:18:31.482Z,14.37
2022-08-08T03:19:24.868Z,14.43
2022-08-08T03:20:26.065Z,14.45
2022-08-08T03:21:26.742Z,14.48
2022-08-08T03:22:48.226Z,14.50
2022-08-08T03:23:30.423Z,14.50
2022-08-08T03:24:26.344Z,14.51
2022-08-08T03:25:34.045Z,14.51
2022-08-08T03:26:27.196Z,14.51
2022-08-08T03:27:28.167Z,14.51
2022-08-08T03:28:29.366Z,14.54
2022-08-08T03:29:54.989Z,14.55
2022-08-08T03:30:28.093Z,14.59
2022-08-08T03:31:30.505Z,14.63
2022-08-08T03:32:30.853Z,14.65
2022-08-08T03:33:54.796Z,14.65
2022-08-08T03:34:29.251Z,14.66
2022-08-08T03:35:30.343Z,14.69
2022-08-08T03:36:30.549Z,14.70
2022-08-08T03:38:53.933Z,14.70
2022-08-08T03:38:56.911Z,14.72
2022-08-08T03:39:30.790Z,14.70
2022-08-08T03:40:34.902Z,14.72
2022-08-08T03:42:13.092Z,14.72
2022-08-08T03:42:32.674Z,14.73
2022-08-08T03:43:38.376Z,14.73
2022-08-08T03:44:32.221Z,14.72
2022-08-08T03:46:06.172Z,14.73
2022-08-08T03:46:32.899Z,14.73
2022-08-08T03:47:45.378Z,14.73
2022-08-08T03:49:08.908Z,14.77
2022-08-08T03:50:00.746Z,14.73
2022-08-08T03:50:34.521Z,14.70
2022-08-08T03:51:46.994Z,14.70
2022-08-08T03:52:45.249Z,14.68
2022-08-08T03:53:42.224Z,14.65
2022-08-08T03:54:52.383Z,14.60
2022-08-08T03:55:55.857Z,14.59
2022-08-08T03:56:35.711Z,14.59
2022-08-08T03:58:30.877Z,14.55
2022-08-08T03:58:37.812Z,14.58
2022-08-08T03:59:57.110Z,14.55
2022-08-08T04:00:56.506Z,14.60
2022-08-08T04:02:12.465Z,14.62
2022-08-08T04:02:47.294Z,14.66
2022-08-08T04:03:57.915Z,14.66
2022-08-08T04:04:39.943Z,14.69
2022-08-08T04:05:37.216Z,14.70
2022-08-08T04:06:37.521Z,14.70
2022-08-08T04:07:41.290Z,14.73
2022-08-08T04:08:38.097Z,14.77
2022-08-08T04:09:58.962Z,14.78
2022-08-08T04:10:41.520Z,14.79
2022-08-08T04:11:53.712Z,14.82
2022-08-08T04:12:41.055Z,14.82
2022-08-08T04:14:34.961Z,14.85
2022-08-08T04:14:40.769Z,14.84
2022-08-08T04:15:55.149Z,14.84
2022-08-08T04:16:41.564Z,14.85
2022-08-08T04:17:59.278Z,14.86
2022-08-08T04:18:48.589Z,14.86
2022-08-08T04:19:42.062Z,14.86
2022-08-08T04:20:43.243Z,14.86
2022-08-08T04:21:45.893Z,14.88
2022-08-08T04:22:42.914Z,14.88
2022-08-08T04:24:05.335Z,14.88
2022-08-08T04:24:43.535Z,14.91
2022-08-08T04:25:47.164Z,14.92
2022-08-08T04:26:57.454Z,14.91
2022-08-08T04:28:08.722Z,14.92
2022-08-08T04:28:44.572Z,14.96
2022-08-08T04:29:55.445Z,14.94
2022-08-08T04:30:45.175Z,14.97
2022-08-08T04:31:59.822Z,15.02
2022-08-08T04:32:50.106Z,15.04
2022-08-08T04:33:44.971Z,15.07
2022-08-08T04:34:58.537Z,15.10
2022-08-08T04:35:50.911Z,15.14
2022-08-08T04:36:46.947Z,15.18
2022-08-08T04:37:47.105Z,15.18
2022-08-08T04:38:57.220Z,15.21
2022-08-08T04:40:05.418Z,15.21
2022-08-08T04:40:51.502Z,15.24
2022-08-08T04:41:49.286Z,15.27
2022-08-08T04:42:56.789Z,15.28
2022-08-08T04:43:57.085Z,15.29
2022-08-08T04:44:50.019Z,15.31
2022-08-08T04:45:48.371Z,15.33
2022-08-08T04:46:52.319Z,15.29
2022-08-08T04:47:52.738Z,15.29
2022-08-08T04:48:52.418Z,15.25
2022-08-08T04:49:55.891Z,15.25
2022-08-08T04:50:51.746Z,15.25
2022-08-08T04:51:57.053Z,15.25
2022-08-08T04:52:58.634Z,15.28
2022-08-08T04:54:39.035Z,15.28
2022-08-08T04:54:52.013Z,15.25
2022-08-08T04:55:56.552Z,15.25
2022-08-08T04:56:52.453Z,15.25
2022-08-08T04:57:56.160Z,15.28
2022-08-08T04:58:53.882Z,15.29
2022-08-08T04:59:52.311Z,15.33
2022-08-08T05:00:52.621Z,15.35
2022-08-08T05:01:52.944Z,15.33
2022-08-08T05:02:57.004Z,15.35
2022-08-08T05:04:08.380Z,15.36
2022-08-08T05:04:54.666Z,15.36
2022-08-08T05:05:56.840Z,15.42
2022-08-08T05:06:54.206Z,15.44
2022-08-08T05:07:56.574Z,15.46
2022-08-08T05:08:56.348Z,15.51
2022-08-08T05:09:56.026Z,15.52
2022-08-08T05:10:56.225Z,15.55
2022-08-08T05:11:56.714Z,15.57
2022-08-08T05:13:02.294Z,15.58
2022-08-08T05:14:00.989Z,15.59
2022-08-08T05:14:56.464Z,15.59
2022-08-08T05:16:52.410Z,15.61
2022-08-08T05:17:01.138Z,15.61
2022-08-08T05:18:01.205Z,15.64
2022-08-08T05:18:59.545Z,15.67
2022-08-08T05:20:11.041Z,15.70
2022-08-08T05:20:59.159Z,15.73
2022-08-08T05:22:01.354Z,15.73
2022-08-08T05:22:59.428Z,15.76
2022-08-08T05:24:04.456Z,15.79
2022-08-08T05:25:03.975Z,15.83
2022-08-08T05:26:00.366Z,15.84
2022-08-08T05:27:01.627Z,15.91
2022-08-08T05:28:03.051Z,15.92
2022-08-08T05:29:06.028Z,15.92
2022-08-08T05:30:03.786Z,15.97
2022-08-08T05:31:08.603Z,16.00
2022-08-08T05:32:05.889Z,16.02
2022-08-08T05:33:03.302Z,16.05
2022-08-08T05:34:01.656Z,16.09
2022-08-08T05:35:05.209Z,16.13
2022-08-08T05:36:05.608Z,16.20
2022-08-08T05:37:02.466Z,16.24
2022-08-08T05:38:04.640Z,16.29
2022-08-08T05:39:04.023Z,16.33
2022-08-08T05:40:03.309Z,16.36
2022-08-08T05:41:05.523Z,16.39
2022-08-08T05:42:03.799Z,16.43
2022-08-08T05:43:40.108Z,16.42
2022-08-08T05:44:05.405Z,16.42
2022-08-08T05:45:24.383Z,16.43
2022-08-08T05:46:08.520Z,16.47
2022-08-08T05:47:06.080Z,16.47
2022-08-08T05:48:09.906Z,16.49
2022-08-08T05:49:11.122Z,16.51
2022-08-08T05:50:07.072Z,16.56
2022-08-08T05:51:13.267Z,16.60
2022-08-08T05:52:09.583Z,16.61
2022-08-08T05:53:53.816Z,16.72
2022-08-08T05:54:27.147Z,16.78
2022-08-08T05:55:09.986Z,16.81
2022-08-08T05:56:14.697Z,16.87
2022-08-08T05:57:10.821Z,16.86
2022-08-08T05:58:17.854Z,16.86
2022-08-08T05:59:12.493Z,16.89
2022-08-08T06:00:22.591Z,16.89
2022-08-08T06:01:10.202Z,16.93
2022-08-08T06:02:11.394Z,16.96
2022-08-08T06:03:23.712Z,16.94
2022-08-08T06:04:13.837Z,16.94
2022-08-08T06:05:33.633Z,16.96
2022-08-08T06:06:11.505Z,17.02
2022-08-08T06:07:13.681Z,17.05
2022-08-08T06:08:33.564Z,17.08
2022-08-08T06:10:00.267Z,17.06
2022-08-08T06:10:12.614Z,17.09
2022-08-08T06:11:13.347Z,17.19
2022-08-08T06:12:14.286Z,17.24
2022-08-08T06:13:14.236Z,17.31
2022-08-08T06:14:17.740Z,17.34
2022-08-08T06:15:16.237Z,17.44
2022-08-08T06:16:13.271Z,17.48
2022-08-08T06:17:19.213Z,17.51
2022-08-08T06:18:20.072Z,17.57
2022-08-08T06:19:17.061Z,17.59
2022-08-08T06:20:16.135Z,17.57
2022-08-08T06:21:33.060Z,17.54
2022-08-08T06:22:35.387Z,17.60
2022-08-08T06:23:16.137Z,17.63
2022-08-08T06:24:27.000Z,17.68
2022-08-08T06:25:16.654Z,17.70
2022-08-08T06:26:44.955Z,17.76
2022-08-08T06:27:17.135Z,17.72
2022-08-08T06:28:18.335Z,17.76
2022-08-08T06:29:26.657Z,17.76
2022-08-08T06:30:20.327Z,17.80
2022-08-08T06:31:18.229Z,17.79
2022-08-08T06:32:17.545Z,17.86
2022-08-08T06:33:37.046Z,17.94
2022-08-08T06:34:25.652Z,17.95
2022-08-08T06:36:06.511Z,18.00
2022-08-08T06:36:19.585Z,18.00
2022-08-08T06:37:25.119Z,18.04
2022-08-08T06:38:27.701Z,18.08
2022-08-08T06:39:23.658Z,18.11
2022-08-08T06:40:19.753Z,18.19
2022-08-08T06:41:21.889Z,18.29
2022-08-08T06:42:24.186Z,18.33
2022-08-08T06:43:20.519Z,18.45
2022-08-08T06:44:24.949Z,18.62
2022-08-08T06:45:22.978Z,18.68
2022-08-08T06:46:23.857Z,18.88
2022-08-08T06:47:22.899Z,19.21
2022-08-08T06:48:26.685Z,19.52
2022-08-08T06:49:54.908Z,19.64
2022-08-08T06:50:32.295Z,19.37
2022-08-08T06:51:46.704Z,19.33
2022-08-08T06:52:27.735Z,19.52
2022-08-08T06:53:23.252Z,19.96
2022-08-08T06:54:26.895Z,20.55
2022-08-08T06:55:25.622Z,20.95
2022-08-08T06:56:24.132Z,20.78
2022-08-08T06:57:29.023Z,21.46
2022-08-08T06:58:30.969Z,22.32
2022-08-08T06:59:27.733Z,23.02
2022-08-08T07:00:29.485Z,22.06
2022-08-08T07:02:26.390Z,21.37
2022-08-08T07:02:29.661Z,21.00
2022-08-08T07:04:34.895Z,20.92
2022-08-08T07:04:41.419Z,20.69
2022-08-08T07:05:29.666Z,20.28
2022-08-08T07:06:28.586Z,19.99
2022-08-08T07:07:32.795Z,19.92
2022-08-08T07:08:28.257Z,20.16
2022-08-08T07:09:41.709Z,20.16
2022-08-08T07:10:28.929Z,20.55
2022-08-08T07:11:30.302Z,20.92
2022-08-08T07:12:31.305Z,21.05
2022-08-08T07:13:31.672Z,21.40
2022-08-08T07:14:29.230Z,21.39
2022-08-08T07:16:01.228Z,21.33
2022-08-08T07:16:30.733Z,20.95
2022-08-08T07:17:40.422Z,20.99
2022-08-08T07:18:35.593Z,20.97
2022-08-08T07:19:30.707Z,20.74
2022-08-08T07:20:32.676Z,20.82
2022-08-08T07:21:32.094Z,20.85
2022-08-08T07:22:32.037Z,20.74
2022-08-08T07:23:57.581Z,20.67
2022-08-08T07:24:32.792Z,20.65
2022-08-08T07:25:33.981Z,20.70
2022-08-08T07:26:35.094Z,20.77
2022-08-08T07:27:46.932Z,20.92
2022-08-08T07:28:35.953Z,20.84
2022-08-08T07:29:59.594Z,20.74
2022-08-08T07:30:34.465Z,20.82
2022-08-08T07:31:35.985Z,20.84
2022-08-08T07:32:35.845Z,21.00
2022-08-08T07:33:38.046Z,20.74
2022-08-08T07:34:35.653Z,20.81
2022-08-08T07:35:35.962Z,20.88
2022-08-08T07:36:37.128Z,20.74
2022-08-08T07:37:55.438Z,20.70
2022-08-08T07:38:38.218Z,20.70
2022-08-08T07:39:45.449Z,20.87
2022-08-08T07:40:37.344Z,20.80
2022-08-08T07:41:58.575Z,20.56
2022-08-08T07:42:39.779Z,20.55
2022-08-08T07:43:38.121Z,20.69
2022-08-08T07:44:43.426Z,20.81
2022-08-08T07:46:05.565Z,20.74
2022-08-08T07:46:38.921Z,20.77
2022-08-08T07:47:40.309Z,20.55
2022-08-08T07:48:40.289Z,20.55
2022-08-08T07:49:39.919Z,20.70
2022-08-08T07:50:39.002Z,20.77
2022-08-08T07:51:45.349Z,20.67
2022-08-08T07:52:43.482Z,20.69
2022-08-08T07:54:02.480Z,20.58
2022-08-08T07:54:42.888Z,20.58
2022-08-08T07:55:40.401Z,20.66
2022-08-08T07:56:40.753Z,20.58
2022-08-08T07:57:48.260Z,20.28
2022-08-08T07:58:45.224Z,20.40
2022-08-08T07:59:41.486Z,20.41
2022-08-08T08:00:43.765Z,20.41
2022-08-08T08:02:35.680Z,20.47
2022-08-08T08:02:43.429Z,20.50
2022-08-08T08:03:46.465Z,20.63
2022-08-08T08:04:44.668Z,20.37
2022-08-08T08:05:43.042Z,20.41
2022-08-08T08:06:43.326Z,20.41
2022-08-08T08:07:45.952Z,20.52
2022-08-08T08:08:52.118Z,20.47
2022-08-08T08:09:45.082Z,20.55
2022-08-08T08:10:46.265Z,20.62
2022-08-08T08:11:51.917Z,20.60
2022-08-08T08:12:46.038Z,20.74
2022-08-08T08:14:08.402Z,20.88
2022-08-08T08:14:46.586Z,20.99
2022-08-08T08:15:45.893Z,20.92
2022-08-08T08:16:48.696Z,20.96
2022-08-08T08:17:48.195Z,20.88
2022-08-08T08:18:52.217Z,20.90
2022-08-08T08:19:50.440Z,20.80
2022-08-08T08:20:48.369Z,20.48
2022-08-08T08:21:57.524Z,20.32
2022-08-08T08:22:48.920Z,20.28
2022-08-08T08:23:50.869Z,20.31
2022-08-08T08:24:48.441Z,20.40
2022-08-08T08:25:52.042Z,20.32
2022-08-08T08:26:52.750Z,20.14
2022-08-08T08:27:49.326Z,20.04
2022-08-08T08:28:52.588Z,19.88
2022-08-08T08:29:50.905Z,19.70
2022-08-08T08:30:52.091Z,19.47
2022-08-08T08:31:53.918Z,19.30
2022-08-08T08:32:52.024Z,19.24
2022-08-08T08:33:54.154Z,19.16
2022-08-08T08:34:51.373Z,19.11
2022-08-08T08:36:19.797Z,19.09
2022-08-08T08:36:55.000Z,19.07
2022-08-08T08:38:14.505Z,18.98
2022-08-08T08:38:54.935Z,18.90
2022-08-08T08:40:01.123Z,18.78
2022-08-08T08:40:53.952Z,18.74
2022-08-08T08:41:53.243Z,18.62
2022-08-08T08:42:55.439Z,18.63
2022-08-08T08:44:14.383Z,18.63
2022-08-08T08:44:57.069Z,18.62
2022-08-08T08:45:57.368Z,18.62
2022-08-08T08:46:58.899Z,18.66
2022-08-08T08:47:58.471Z,18.66
2022-08-08T08:48:56.033Z,18.75
2022-08-08T08:49:57.388Z,18.84
2022-08-08T08:50:57.558Z,18.74
2022-08-08T08:51:56.050Z,18.81
2022-08-08T08:52:59.845Z,18.77
2022-08-08T08:54:00.051Z,18.80
2022-08-08T08:54:58.750Z,18.80
2022-08-08T08:56:01.301Z,18.78
2022-08-08T08:56:58.418Z,18.78
2022-08-08T08:57:59.192Z,18.80
2022-08-08T08:59:01.385Z,18.78
2022-08-08T09:00:04.934Z,18.75
2022-08-08T09:01:08.824Z,18.83
2022-08-08T09:02:01.007Z,18.88
2022-08-08T09:03:00.071Z,18.95
2022-08-08T09:04:01.434Z,19.02
2022-08-08T09:04:59.801Z,19.26
2022-08-08T09:06:00.043Z,19.39
2022-08-08T09:07:12.057Z,19.40
2022-08-08T09:08:12.605Z,19.62
2022-08-08T09:09:03.366Z,19.76
2022-08-08T09:10:04.608Z,19.92
2022-08-08T09:11:02.376Z,20.06
2022-08-08T09:12:07.548Z,20.07
2022-08-08T09:13:04.944Z,20.21
2022-08-08T09:14:02.947Z,20.37
2022-08-08T09:15:03.524Z,20.43
2022-08-08T09:16:04.198Z,20.40
2022-08-08T09:17:11.566Z,20.37
2022-08-08T09:18:04.516Z,20.50
2022-08-08T09:19:05.704Z,20.66
2022-08-08T09:22:01.321Z,20.80
2022-08-08T09:22:01.478Z,20.72
2022-08-08T09:22:06.697Z,20.72
2022-08-08T09:23:05.028Z,20.92
2022-08-08T09:24:08.249Z,21.11
2022-08-08T09:25:09.686Z,21.06
2022-08-08T09:26:05.811Z,21.02
2022-08-08T09:27:06.056Z,21.27
2022-08-08T09:28:06.299Z,21.39
2022-08-08T09:29:08.554Z,21.70
2022-08-08T09:30:10.642Z,22.00
2022-08-08T09:31:12.653Z,22.29
2022-08-08T09:32:12.011Z,22.54
2022-08-08T09:33:54.911Z,22.78
2022-08-08T09:34:32.614Z,22.83
2022-08-08T09:35:09.951Z,22.98
2022-08-08T09:36:11.153Z,23.02
2022-08-08T09:37:34.108Z,22.93
2022-08-08T09:38:17.729Z,22.94
2022-08-08T09:39:18.885Z,22.87
2022-08-08T09:40:14.446Z,22.81
2022-08-08T09:41:09.805Z,22.80
2022-08-08T09:42:20.908Z,22.91
2022-08-08T09:43:16.654Z,23.06
2022-08-08T09:44:12.922Z,23.21
2022-08-08T09:45:20.621Z,23.21
2022-08-08T09:46:16.792Z,23.39
2022-08-08T09:47:25.392Z,23.34
2022-08-08T09:48:18.550Z,23.13
2022-08-08T09:49:41.110Z,23.59
2022-08-08T09:50:15.203Z,23.77
2022-08-08T09:51:14.374Z,23.80
2022-08-08T09:52:16.208Z,23.92
2022-08-08T09:53:32.055Z,24.20
2022-08-08T09:54:19.956Z,24.20
2022-08-08T09:55:17.549Z,23.87
2022-08-08T09:56:24.946Z,23.41
2022-08-08T09:57:17.104Z,23.40
2022-08-08T09:58:19.835Z,23.61
2022-08-08T09:59:50.521Z,23.54
2022-08-08T10:00:49.739Z,23.36
2022-08-08T10:02:00.134Z,23.47
2022-08-08T10:02:16.577Z,23.59
2022-08-08T10:03:19.821Z,23.36
2022-08-08T10:04:35.439Z,23.34
2022-08-08T10:05:22.707Z,23.66
2022-08-08T10:06:17.712Z,23.62
2022-08-08T10:07:17.269Z,23.56
2022-08-08T10:08:21.302Z,23.36
2022-08-08T10:09:19.391Z,23.00
2022-08-08T10:10:17.963Z,23.31
2022-08-08T10:12:26.491Z,23.65
2022-08-08T10:12:26.529Z,23.76
2022-08-08T10:13:25.899Z,23.55
2022-08-08T10:14:27.635Z,23.73
2022-08-08T10:15:20.334Z,23.93
2022-08-08T10:16:21.514Z,24.35
2022-08-08T10:17:56.812Z,24.80
2022-08-08T10:18:25.863Z,25.35
2022-08-08T10:19:20.463Z,25.91
2022-08-08T10:20:22.544Z,25.98
2022-08-08T10:21:25.121Z,26.18
2022-08-08T10:22:24.261Z,26.19
2022-08-08T10:23:41.281Z,25.81
2022-08-08T10:24:28.530Z,25.54
2022-08-08T10:25:23.033Z,24.77
2022-08-08T10:26:30.460Z,24.43
2022-08-08T10:27:23.858Z,24.61
2022-08-08T10:28:25.619Z,24.14
2022-08-08T10:29:24.856Z,24.26
2022-08-08T10:30:59.660Z,24.32
2022-08-08T10:31:47.530Z,24.84
2022-08-08T10:32:24.993Z,25.44
2022-08-08T10:33:38.270Z,25.54
2022-08-08T10:34:27.317Z,24.81
2022-08-08T10:36:20.538Z,24.76
2022-08-08T10:36:30.934Z,24.73
2022-08-08T10:37:27.662Z,25.36
2022-08-08T10:38:29.453Z,25.21
2022-08-08T10:39:31.705Z,25.08
2022-08-08T10:40:27.131Z,24.95
2022-08-08T10:41:35.651Z,24.78
2022-08-08T10:42:29.839Z,24.63
2022-08-08T10:43:32.175Z,24.68
2022-08-08T10:44:28.297Z,24.21
2022-08-08T10:45:27.560Z,23.83
2022-08-08T10:46:30.262Z,23.69
2022-08-08T10:47:30.496Z,23.62
2022-08-08T10:48:31.356Z,22.93
2022-08-08T10:50:00.843Z,22.48
2022-08-08T10:50:31.894Z,22.36
2022-08-08T10:51:31.570Z,22.36
2022-08-08T10:52:31.125Z,22.22
2022-08-08T10:53:39.328Z,22.30
2022-08-08T10:54:31.910Z,22.36
2022-08-08T10:55:41.679Z,22.43
2022-08-08T10:56:35.068Z,22.18
2022-08-08T10:57:45.343Z,22.18
2022-08-08T10:58:36.019Z,22.26
2022-08-08T10:59:40.077Z,21.96
2022-08-08T11:00:48.356Z,21.93
2022-08-08T11:01:33.464Z,22.02
2022-08-08T11:02:32.873Z,21.99
2022-08-08T11:03:36.438Z,21.96
2022-08-08T11:04:39.209Z,21.91
2022-08-08T11:05:38.602Z,21.92
2022-08-08T11:06:34.691Z,21.92
2022-08-08T11:08:31.425Z,22.17
2022-08-08T11:08:42.972Z,22.18
2022-08-08T11:09:35.394Z,22.22
2022-08-08T11:10:34.537Z,22.41
2022-08-08T11:12:05.507Z,22.53
2022-08-08T11:12:38.347Z,22.60
2022-08-08T11:13:39.216Z,23.02
2022-08-08T11:14:37.666Z,23.40
2022-08-08T11:15:53.160Z,23.66
2022-08-08T11:16:38.247Z,23.68
2022-08-08T11:17:59.361Z,23.43
2022-08-08T11:18:41.616Z,23.25
2022-08-08T11:19:37.958Z,23.34
2022-08-08T11:20:39.206Z,23.48
2022-08-08T11:21:38.532Z,23.61
2022-08-08T11:22:38.703Z,23.23
2022-08-08T11:23:41.159Z,22.87
2022-08-08T11:24:40.260Z,22.60
2022-08-08T11:25:53.315Z,22.90
2022-08-08T11:26:56.838Z,22.85
2022-08-08T11:27:42.244Z,22.90
2022-08-08T11:28:43.433Z,23.00
2022-08-08T11:29:50.993Z,23.15
2022-08-08T11:30:50.087Z,23.09
2022-08-08T11:31:48.315Z,23.13
2022-08-08T11:32:47.409Z,23.31
2022-08-08T11:33:52.366Z,23.39
2022-08-08T11:35:08.819Z,23.36
2022-08-08T11:35:43.455Z,23.23
2022-08-08T11:36:43.624Z,23.24
2022-08-08T11:38:35.859Z,23.58
2022-08-08T11:38:54.866Z,23.81
2022-08-08T11:39:43.587Z,24.26
2022-08-08T11:40:45.537Z,24.76
2022-08-08T11:41:43.060Z,24.86
2022-08-08T11:42:44.259Z,24.85
2022-08-08T11:43:48.967Z,24.99
2022-08-08T11:44:43.846Z,24.69
2022-08-08T11:46:09.130Z,24.39
2022-08-08T11:46:45.465Z,24.33
2022-08-08T11:48:02.869Z,24.48
2022-08-08T11:48:49.007Z,24.66
2022-08-08T11:49:49.106Z,24.73
2022-08-08T11:50:45.699Z,24.92
2022-08-08T11:51:49.877Z,25.70
2022-08-08T11:52:46.219Z,25.91
2022-08-08T11:53:55.169Z,25.88
2022-08-08T11:54:49.686Z,25.83
2022-08-08T11:55:47.009Z,25.62
2022-08-08T11:56:55.979Z,25.36
2022-08-08T11:57:51.790Z,25.53
2022-08-08T11:58:50.822Z,25.59
2022-08-08T12:00:01.081Z,25.59
2022-08-08T12:00:51.278Z,25.59
2022-08-08T12:01:48.598Z,25.58
2022-08-08T12:02:51.155Z,25.55
2022-08-08T12:03:50.660Z,25.35
2022-08-08T12:04:49.448Z,25.38
2022-08-08T12:05:49.687Z,25.32
2022-08-08T12:06:51.884Z,25.10
2022-08-08T12:07:51.454Z,25.06
2022-08-08T12:08:54.353Z,25.13
2022-08-08T12:09:56.961Z,25.17
2022-08-08T12:10:51.905Z,24.92
2022-08-08T12:11:53.092Z,24.26
2022-08-08T12:12:54.671Z,24.23
2022-08-08T12:14:03.412Z,24.03
2022-08-08T12:14:54.874Z,23.98
2022-08-08T12:15:52.348Z,23.86
2022-08-08T12:16:52.606Z,24.14
2022-08-08T12:17:52.837Z,24.29
2022-08-08T12:18:56.100Z,24.48
2022-08-08T12:19:53.992Z,24.55
2022-08-08T12:20:54.479Z,25.23
2022-08-08T12:21:59.779Z,25.72
2022-08-08T12:22:59.078Z,26.26
2022-08-08T12:23:59.228Z,26.45
2022-08-08T12:24:56.262Z,26.80
2022-08-08T12:25:56.707Z,26.58
2022-08-08T12:26:57.148Z,26.88
2022-08-08T12:27:55.584Z,27.29
2022-08-08T12:28:57.760Z,26.60
2022-08-08T12:29:56.026Z,25.75
2022-08-08T12:30:56.272Z,25.22
2022-08-08T12:31:56.513Z,24.98
2022-08-08T12:32:56.764Z,25.26
2022-08-08T12:34:01.598Z,25.17
2022-08-08T12:35:01.311Z,24.73
2022-08-08T12:35:58.504Z,24.45
2022-08-08T12:36:57.743Z,24.20
2022-08-08T12:38:02.218Z,23.86
2022-08-08T12:38:58.316Z,23.69
2022-08-08T12:40:00.287Z,23.78
2022-08-08T12:41:05.805Z,23.59
2022-08-08T12:42:01.911Z,23.65
2022-08-08T12:43:01.335Z,23.69
2022-08-08T12:44:01.405Z,23.54
2022-08-08T12:45:01.944Z,23.61
2022-08-08T12:46:03.406Z,23.61
2022-08-08T12:47:02.894Z,23.77
2022-08-08T12:48:09.735Z,24.08
2022-08-08T12:50:04.324Z,25.22
2022-08-08T12:51:02.701Z,25.07
2022-08-08T12:52:03.934Z,25.31
2022-08-08T12:53:03.300Z,25.51
2022-08-08T12:54:04.719Z,26.28
2022-08-08T12:55:03.961Z,26.80
2022-08-08T12:56:17.482Z,26.48